86IS weather

Michael Pfister Airport
Roanoke, Illinois, United States

Public forecast

Using degrees Fahrenheit for public forecast. Weather courtesy of forecast.io.

METAR (pilot weather report)

Closest report is Marshall County Airport, 15.5 nm (28.8 km) NNW. Retrieved 2019/06/18 08:30 UTC (0 seconds ago):

KC75 180830Z AUTO 00000KT 5SM BR OVC032 17/16 A2997 RMK AO2 T01690160

TAF (pilot weather forecast)

Closest forecast is General Wayne A. Downing Peoria International Airport, 21.0 nm (38.9 km) WSW. Retrieved 2019/06/18 06:24 UTC (2 hours ago):

TAF KPIA 180520Z 1806/1906 03003KT 6SM BR SCT008 BKN022 TEMPO 1808/1812 4SM BR BKN008 FM181600 01003KT P6SM SCT027 BKN200